Time;durP1;ratioP1;P1;durP2;ratioP2;P2;SDS_P1;SDS_P2;PMS_P1;PMS_P2;Temp;Humidity;BMP_temperature;BMP_pressure;BME280_temperature;BME280_humidity;BME280_pressure;Samples;Min_cycle;Max_cycle;Signal;HPM_P1;HPM_P2
2022/06/05 00:02:00;;;;;;;5.35;3.90;;;18.70;90.40;;;;;;4947012;28;20030;-36
2022/06/05 00:04:41;;;;;;;5.28;4.25;;;18.70;90.40;;;;;;4936986;29;20399;-36
2022/06/05 00:07:28;;;;;;;5.72;4.20;;;18.70;90.40;;;;;;4947924;28;20027;-36
2022/06/05 00:10:17;;;;;;;6.35;4.28;;;18.70;90.50;;;;;;4946960;28;20027;-36
2022/06/05 00:13:24;;;;;;;5.10;4.10;;;18.70;90.50;;;;;;4942977;29;20070;-36
2022/06/05 00:15:50;;;;;;;3.50;3.20;;;18.60;90.50;;;;;;4942456;29;20450;-36
2022/06/05 00:18:16;;;;;;;5.00;3.75;;;18.60;90.50;;;;;;4947112;29;20516;-35
2022/06/05 00:20:45;;;;;;;4.57;3.90;;;18.60;90.50;;;;;;4947100;29;20082;-37
2022/06/05 00:23:11;;;;;;;4.85;3.67;;;18.60;90.50;;;;;;4946575;28;20506;-36
2022/06/05 00:25:55;;;;;;;5.50;3.53;;;18.60;90.50;;;;;;4946596;29;20038;-36
2022/06/05 00:28:45;;;;;;;4.50;4.07;;;18.60;90.60;;;;;;4946751;28;20063;-36
2022/06/05 00:31:35;;;;;;;4.80;4.18;;;18.60;90.60;;;;;;4946247;29;20374;-35
2022/06/05 00:34:00;;;;;;;4.80;4.07;;;18.50;90.70;;;;;;4946858;29;20455;-35
2022/06/05 00:36:55;;;;;;;4.90;4.40;;;18.50;90.60;;;;;;4946218;29;20027;-35
2022/06/05 00:39:27;;;;;;;4.75;3.75;;;18.50;90.70;;;;;;4937383;29;20055;-36
2022/06/05 00:41:54;;;;;;;4.63;4.15;;;18.50;90.70;;;;;;4946780;29;20031;-35
2022/06/05 00:44:43;;;;;;;4.68;3.83;;;18.50;90.80;;;;;;4946122;29;20578;-37
2022/06/05 00:47:13;;;;;;;5.03;4.50;;;18.50;90.80;;;;;;4930692;29;20055;-35
2022/06/05 00:49:50;;;;;;;4.38;3.90;;;18.40;90.90;;;;;;4946298;29;20038;-35
2022/06/05 00:52:19;;;;;;;8.45;4.80;;;18.40;91.20;;;;;;4949872;28;20051;-35
2022/06/05 00:54:45;;;;;;;4.78;4.28;;;18.40;91.30;;;;;;4949761;28;20105;-36
2022/06/05 00:57:13;;;;;;;5.57;4.13;;;18.30;91.10;;;;;;4949593;29;20027;-35
2022/06/05 00:59:41;;;;;;;5.65;4.10;;;18.30;91.10;;;;;;4950283;28;20055;-35
2022/06/05 01:02:12;;;;;;;5.32;4.28;;;18.20;91.20;;;;;;4950475;28;20058;-35
2022/06/05 01:04:41;;;;;;;4.63;3.60;;;18.20;91.20;;;;;;4949302;28;20023;-37
2022/06/05 01:07:07;;;;;;;3.75;3.40;;;18.20;91.30;;;;;;4950289;28;20419;-35
2022/06/05 01:09:33;;;;;;;4.10;3.72;;;18.20;91.30;;;;;;4949711;28;20030;-34
2022/06/05 01:12:17;;;;;;;6.95;4.20;;;18.10;91.30;;;;;;4949467;29;20395;-34
2022/06/05 01:15:03;;;;;;;5.85;4.53;;;18.10;91.40;;;;;;4949420;29;20035;-34
2022/06/05 01:17:46;;;;;;;7.28;4.68;;;18.10;91.50;;;;;;4949926;29;20031;-35
2022/06/05 01:20:15;;;;;;;4.72;4.22;;;18.10;91.50;;;;;;4948799;28;20533;-36
2022/06/05 01:22:46;;;;;;;6.72;4.35;;;18.00;91.50;;;;;;4949590;28;20126;-35
2022/06/05 01:25:34;;;;;;;4.72;4.32;;;18.00;91.60;;;;;;4949078;29;20376;-37
2022/06/05 01:28:07;;;;;;;4.70;3.72;;;18.00;91.70;;;;;;4949641;29;20031;-36
2022/06/05 01:30:41;;;;;;;4.97;4.07;;;17.90;91.70;;;;;;4949151;28;20041;-36
2022/06/05 01:33:15;;;;;;;4.30;3.90;;;17.90;91.80;;;;;;4949093;29;20471;-35
2022/06/05 01:36:08;;;;;;;6.68;4.07;;;17.90;91.90;;;;;;4949647;28;20034;-36
2022/06/05 01:38:52;;;;;;;6.78;4.18;;;17.90;91.90;;;;;;4949228;29;20438;-36
2022/06/05 01:41:25;;;;;;;5.20;4.47;;;17.80;91.90;;;;;;4948845;28;20023;-37
2022/06/05 01:43:52;;;;;;;;;;;17.80;92.00;;;;;;4950055;29;20162;-36
2022/06/05 01:46:24;;;;;;;5.80;4.75;;;17.80;92.10;;;;;;4948434;28;19914;-37
2022/06/05 01:48:56;;;;;;;;;;;17.70;92.10;;;;;;4950770;28;20487;-35
2022/06/05 01:51:56;;;;;;;5.57;4.55;;;17.70;92.20;;;;;;4949026;28;20008;-36
2022/06/05 01:54:39;;;;;;;6.75;4.80;;;17.60;92.20;;;;;;4943933;29;20534;-35
2022/06/05 01:57:08;;;;;;;5.28;4.10;;;17.60;92.30;;;;;;4947941;28;20031;-35
2022/06/05 01:59:49;;;;;;;5.78;5.03;;;17.60;92.40;;;;;;4949121;28;20035;-36
2022/06/05 02:02:21;;;;;;;6.13;5.32;;;17.50;92.60;;;;;;4948258;29;20019;-35
2022/06/05 02:04:53;;;;;;;5.97;4.80;;;17.50;92.70;;;;;;4949010;28;20027;-34
2022/06/05 02:07:41;;;;;;;5.82;5.10;;;17.50;92.80;;;;;;4948775;28;20070;-34
2022/06/05 02:10:13;;;;;;;6.55;4.88;;;17.40;92.80;;;;;;4930253;29;20027;-34
2022/06/05 02:12:39;;;;;;;6.28;5.47;;;17.40;93.00;;;;;;4946217;29;20105;-36
2022/06/05 02:15:05;;;;;;;5.78;4.78;;;17.40;93.00;;;;;;4948551;28;20110;-35
2022/06/05 02:17:32;;;;;;;7.72;5.22;;;17.30;93.10;;;;;;4948450;29;20466;-35
2022/06/05 02:20:00;;;;;;;7.25;4.68;;;17.30;93.20;;;;;;4948878;28;20035;-35
2022/06/05 02:22:35;;;;;;;6.20;5.13;;;17.30;93.20;;;;;;4947313;29;20023;-37
2022/06/05 02:25:01;;;;;;;6.97;5.10;;;17.30;93.30;;;;;;4948742;28;20035;-35
2022/06/05 02:27:27;;;;;;;5.32;4.80;;;17.20;93.40;;;;;;4948253;29;20023;-36
2022/06/05 02:29:55;;;;;;;5.30;4.80;;;17.20;93.50;;;;;;4948511;28;20046;-35
2022/06/05 02:32:40;;;;;;;6.93;5.32;;;17.20;93.50;;;;;;4947782;29;20467;-36
2022/06/05 02:35:25;;;;;;;9.80;7.10;;;17.10;93.60;;;;;;4948873;28;20774;-35
2022/06/05 02:38:12;;;;;;;7.68;5.60;;;17.10;93.70;;;;;;4947474;28;20057;-35
2022/06/05 02:40:55;;;;;;;7.35;5.55;;;17.10;93.80;;;;;;4948066;29;20151;-35
2022/06/05 02:43:44;;;;;;;;;;;17.00;93.90;;;;;;4947726;29;20087;-35
2022/06/05 02:46:26;;;;;;;6.55;5.18;;;17.00;93.90;;;;;;4945801;29;19921;-36
2022/06/05 02:49:15;;;;;;;8.20;5.90;;;16.90;93.90;;;;;;4948343;29;20041;-34
2022/06/05 02:51:44;;;;;;;6.47;5.40;;;16.90;94.20;;;;;;4947821;28;20028;-34
2022/06/05 02:54:21;;;;;;;5.65;5.15;;;16.80;94.10;;;;;;4948388;28;20482;-36
2022/06/05 02:56:47;;;;;;;9.65;6.88;;;16.80;94.30;;;;;;4947548;28;20181;-35
2022/06/05 02:59:13;;;;;;;8.02;6.25;;;16.70;94.70;;;;;;4948068;29;20394;-35
2022/06/05 03:04:23;;;;;;;6.45;5.68;;;16.60;94.60;;;;;;4947168;29;20391;-34
2022/06/05 03:06:49;;;;;;;8.25;5.80;;;16.60;94.60;;;;;;4948111;28;20069;-35
2022/06/05 03:09:15;;;;;;;6.93;6.20;;;16.60;94.70;;;;;;4947398;28;20031;-36
2022/06/05 03:11:42;;;;;;;8.85;6.15;;;16.60;94.80;;;;;;4947022;28;20019;-35
2022/06/05 03:14:08;;;;;;;7.00;6.13;;;16.60;94.80;;;;;;4947736;28;20398;-35
2022/06/05 03:16:34;;;;;;;7.28;5.82;;;16.50;95.00;;;;;;4948027;28;20386;-35
2022/06/05 03:19:00;;;;;;;8.02;6.50;;;16.50;95.00;;;;;;4947291;28;20472;-34
2022/06/05 03:21:25;;;;;;;7.55;6.75;;;16.50;95.20;;;;;;4947133;28;20028;-34
2022/06/05 03:23:51;;;;;;;6.75;5.85;;;16.50;95.40;;;;;;4947899;29;20026;-35
2022/06/05 03:26:16;;;;;;;9.68;6.50;;;16.50;95.30;;;;;;4946704;29;20442;-35
2022/06/05 03:28:42;;;;;;;8.68;6.82;;;16.50;95.40;;;;;;4947162;29;20034;-35
2022/06/05 03:31:09;;;;;;;8.10;6.10;;;16.50;95.50;;;;;;4947738;29;20023;-35
2022/06/05 03:33:37;;;;;;;7.82;6.40;;;16.40;95.40;;;;;;4945929;29;20035;-36
2022/06/05 03:36:14;;;;;;;10.15;7.65;;;16.50;95.50;;;;;;4947677;28;20046;-35
2022/06/05 03:38:41;;;;;;;8.90;7.05;;;16.40;95.60;;;;;;4947610;29;20118;-35
2022/06/05 03:41:08;;;;;;;7.93;7.13;;;16.40;95.70;;;;;;4946814;28;20027;-34
2022/06/05 03:43:34;;;;;;;8.02;7.13;;;16.40;95.80;;;;;;4947108;28;20124;-36
2022/06/05 03:46:08;;;;;;;8.35;6.35;;;16.40;95.80;;;;;;4946620;29;20036;-35
2022/06/05 03:48:35;;;;;;;9.68;7.72;;;16.40;95.80;;;;;;4947270;28;20097;-35
2022/06/05 03:51:06;;;;;;;10.07;6.97;;;16.40;95.90;;;;;;4947688;29;20457;-36
2022/06/05 03:53:31;;;;;;;7.07;6.38;;;16.40;95.90;;;;;;4946381;28;20138;-36
2022/06/05 03:55:57;;;;;;;7.15;6.45;;;16.30;95.90;;;;;;4947423;29;20114;-37
2022/06/05 03:58:22;;;;;;;7.03;6.03;;;16.30;95.90;;;;;;4947243;29;20039;-35
2022/06/05 04:00:48;;;;;;;9.60;6.95;;;16.30;95.90;;;;;;4946978;29;20034;-36
2022/06/05 04:03:13;;;;;;;6.90;6.05;;;16.40;96.00;;;;;;4947463;29;20027;-37
2022/06/05 04:05:39;;;;;;;7.95;6.03;;;16.40;96.00;;;;;;4947192;29;20102;-36
2022/06/05 04:08:05;;;;;;;6.95;6.25;;;16.40;95.90;;;;;;4947340;29;20027;-36
2022/06/05 04:10:30;;;;;;;7.78;6.07;;;16.50;96.00;;;;;;4946803;29;20035;-36
2022/06/05 04:12:57;;;;;;;6.88;5.63;;;16.50;96.10;;;;;;4948032;29;20050;-36
2022/06/05 04:15:23;;;;;;;7.05;5.82;;;16.50;96.00;;;;;;4946832;28;20558;-37
2022/06/05 04:17:48;;;;;;;6.80;6.20;;;16.50;96.00;;;;;;4947613;29;20050;-36
2022/06/05 04:20:14;;;;;;;5.78;5.28;;;16.50;95.90;;;;;;4947609;28;20487;-36
2022/06/05 04:22:40;;;;;;;5.68;4.85;;;16.60;96.00;;;;;;4950955;29;20118;-35
2022/06/05 04:25:08;;;;;;;6.28;5.50;;;16.60;95.90;;;;;;4951235;28;20031;-34
2022/06/05 04:27:34;;;;;;;6.88;6.07;;;16.60;95.90;;;;;;4949636;29;20306;-34
2022/06/05 04:30:00;;;;;;;6.70;6.00;;;16.60;96.00;;;;;;4950513;29;20042;-35
2022/06/05 04:32:26;;;;;;;8.30;5.68;;;16.60;96.00;;;;;;4950132;28;20028;-35
2022/06/05 04:34:52;;;;;;;8.32;6.32;;;16.70;96.00;;;;;;4951168;29;20062;-34
2022/06/05 04:37:17;;;;;;;6.90;6.18;;;16.70;96.00;;;;;;4949877;29;20479;-34
2022/06/05 04:39:43;;;;;;;6.00;5.40;;;16.70;96.00;;;;;;4950634;29;20394;-34
2022/06/05 04:42:09;;;;;;;6.90;6.07;;;16.80;96.00;;;;;;4950298;29;20367;-34
2022/06/05 04:44:35;;;;;;;6.80;5.35;;;16.90;96.00;;;;;;4950405;28;20244;-35
2022/06/05 04:47:00;;;;;;;6.43;5.82;;;16.90;95.90;;;;;;4950738;28;20027;-34
2022/06/05 04:49:26;;;;;;;8.18;5.90;;;16.90;95.90;;;;;;4950230;29;20254;-34
2022/06/05 04:51:52;;;;;;;8.25;6.28;;;16.90;95.80;;;;;;4950587;28;20027;-35
2022/06/05 04:54:18;;;;;;;6.80;6.10;;;16.90;95.90;;;;;;4950241;29;20122;-36
2022/06/05 04:56:44;;;;;;;6.32;5.28;;;17.00;95.90;;;;;;4949943;28;20162;-35
2022/06/05 04:59:11;;;;;;;6.10;5.47;;;17.00;95.90;;;;;;4950412;28;20027;-36
2022/06/05 05:01:39;;;;;;;7.43;6.03;;;17.00;95.90;;;;;;4949760;28;20443;-37
2022/06/05 05:04:09;;;;;;;7.20;5.40;;;17.00;95.90;;;;;;4950108;28;20464;-35
2022/06/05 05:06:36;;;;;;;5.72;5.03;;;17.10;95.80;;;;;;4950141;28;20027;-35
2022/06/05 05:09:03;;;;;;;7.43;5.55;;;17.20;95.80;;;;;;4950274;29;20028;-35
2022/06/05 05:11:49;;;;;;;6.55;5.95;;;17.20;95.70;;;;;;4949423;28;20035;-36
2022/06/05 05:14:14;;;;;;;8.35;5.93;;;17.30;95.80;;;;;;4949445;29;20031;-37
2022/06/05 05:16:40;;;;;;;7.22;5.60;;;17.30;95.70;;;;;;4949993;29;20019;-36
2022/06/05 05:19:07;;;;;;;9.98;6.05;;;17.30;95.80;;;;;;4949247;28;20486;-35
2022/06/05 05:21:32;;;;;;;6.47;5.85;;;17.30;95.70;;;;;;4948972;28;20380;-37
2022/06/05 05:23:58;;;;;;;5.90;5.28;;;17.30;95.70;;;;;;4949510;28;20082;-36
2022/06/05 05:26:27;;;;;;;7.00;6.05;;;17.30;95.70;;;;;;4946762;29;20242;-35
2022/06/05 05:28:54;;;;;;;7.95;5.57;;;17.30;95.70;;;;;;4948613;28;20070;-37
2022/06/05 05:31:23;;;;;;;7.68;5.80;;;17.40;96.00;;;;;;4948370;28;20026;-35
2022/06/05 05:33:52;;;;;;;5.25;4.68;;;17.40;95.80;;;;;;4948904;28;20811;-36
2022/06/05 05:36:21;;;;;;;5.25;4.68;;;17.40;95.70;;;;;;4949430;29;20016;-36
2022/06/05 05:44:17;;;;;;;6.38;4.82;;;17.40;95.70;;;;;;4950093;29;20039;-35
2022/06/05 05:46:43;;;;;;;5.97;5.38;;;17.40;95.60;;;;;;4948821;29;20027;-35
2022/06/05 05:49:10;;;;;;;5.97;5.30;;;17.40;95.60;;;;;;4949625;29;20447;-35
2022/06/05 05:51:36;;;;;;;6.15;5.47;;;17.40;95.60;;;;;;4949491;29;20027;-34
2022/06/05 05:54:03;;;;;;;5.25;4.75;;;17.40;95.60;;;;;;4948206;29;20407;-35
2022/06/05 05:56:28;;;;;;;5.68;4.70;;;17.40;95.70;;;;;;4948812;28;20031;-35
2022/06/05 05:58:55;;;;;;;5.97;5.38;;;17.40;95.60;;;;;;4949033;28;20119;-35
2022/06/05 06:01:20;;;;;;;4.90;4.38;;;17.40;95.60;;;;;;4948716;29;20058;-35
2022/06/05 06:03:46;;;;;;;8.18;5.28;;;17.40;95.70;;;;;;4948753;29;20051;-36
2022/06/05 06:06:11;;;;;;;5.28;4.63;;;17.40;95.60;;;;;;4949713;29;20022;-37
2022/06/05 06:08:37;;;;;;;7.70;5.63;;;17.40;95.70;;;;;;4947970;29;20035;-36
2022/06/05 06:11:03;;;;;;;5.35;4.85;;;17.40;95.70;;;;;;4948562;29;20558;-36
2022/06/05 06:13:29;;;;;;;6.13;5.38;;;17.40;95.70;;;;;;4946941;29;20118;-36
2022/06/05 06:15:55;;;;;;;6.88;6.18;;;17.40;95.70;;;;;;4946889;28;20031;-36
2022/06/05 06:18:21;;;;;;;5.93;4.95;;;17.40;95.70;;;;;;4947028;28;20356;-37
2022/06/05 06:20:47;;;;;;;4.97;4.45;;;17.50;95.70;;;;;;4946339;28;20114;-36
2022/06/05 06:23:14;;;;;;;6.05;4.75;;;17.50;95.70;;;;;;4946900;28;20118;-35
2022/06/05 06:25:41;;;;;;;5.10;4.60;;;17.50;95.70;;;;;;4946710;28;20110;-35
2022/06/05 06:28:06;;;;;;;5.75;4.85;;;17.50;95.70;;;;;;4947048;28;20031;-37
2022/06/05 06:30:34;;;;;;;6.65;5.15;;;17.60;95.60;;;;;;4948045;28;20419;-36
2022/06/05 06:33:00;;;;;;;6.60;5.18;;;17.60;95.60;;;;;;4949109;29;20035;-36
2022/06/05 06:35:26;;;;;;;6.35;5.47;;;17.60;95.60;;;;;;4947419;28;20046;-36
2022/06/05 06:37:51;;;;;;;5.18;4.68;;;17.70;95.60;;;;;;4948791;29;20023;-37
2022/06/05 06:40:17;;;;;;;5.47;4.93;;;17.70;95.60;;;;;;4947907;29;20038;-37
2022/06/05 06:42:43;;;;;;;6.47;5.85;;;17.70;95.50;;;;;;4945687;28;20035;-36
2022/06/05 06:45:09;;;;;;;5.45;4.95;;;17.80;95.50;;;;;;4949189;28;20106;-37
2022/06/05 06:47:35;;;;;;;6.13;4.85;;;17.80;95.50;;;;;;4948004;28;20142;-37
2022/06/05 06:50:00;;;;;;;7.03;5.75;;;17.90;95.50;;;;;;4947242;29;20031;-38
2022/06/05 06:52:26;;;;;;;5.10;4.50;;;17.90;95.50;;;;;;4947952;29;20058;-37
2022/06/05 06:54:53;;;;;;;5.68;5.13;;;18.00;95.50;;;;;;4948686;28;20035;-36
2022/06/05 06:57:22;;;;;;;5.85;4.53;;;18.00;95.40;;;;;;4947740;28;20029;-37
2022/06/05 06:59:47;;;;;;;5.05;4.55;;;18.00;95.40;;;;;;4948381;29;20046;-37
2022/06/05 07:02:13;;;;;;;5.82;4.30;;;18.10;95.40;;;;;;4947885;28;20027;-36
2022/06/05 07:04:39;;;;;;;4.82;4.43;;;18.10;95.40;;;;;;4947572;29;20079;-35
2022/06/05 07:07:04;;;;;;;6.63;5.20;;;18.20;95.30;;;;;;4948817;29;20207;-35
2022/06/05 07:09:32;;;;;;;6.45;5.10;;;18.20;95.30;;;;;;4947830;28;20167;-35
2022/06/05 07:11:57;;;;;;;6.75;4.70;;;18.30;95.30;;;;;;4947513;28;20027;-35
2022/06/05 07:14:23;;;;;;;5.72;5.07;;;18.40;95.20;;;;;;4948408;29;20023;-35
2022/06/05 07:16:49;;;;;;;4.53;4.13;;;18.50;95.20;;;;;;4947711;28;20399;-35
2022/06/05 07:19:16;;;;;;;5.55;4.75;;;18.60;95.20;;;;;;4948079;28;20038;-36
2022/06/05 07:21:42;;;;;;;7.28;4.88;;;18.70;95.10;;;;;;4947571;28;20035;-37
2022/06/05 07:24:08;;;;;;;4.90;4.40;;;18.80;95.00;;;;;;4947211;29;20023;-37
2022/06/05 07:26:33;;;;;;;4.97;4.50;;;18.90;94.90;;;;;;4947354;28;20027;-37
2022/06/05 07:28:59;;;;;;;5.47;5.07;;;19.00;94.80;;;;;;4947896;29;20038;-35
2022/06/05 07:31:27;;;;;;;4.47;4.07;;;19.20;94.80;;;;;;4946537;29;20089;-37
2022/06/05 07:33:53;;;;;;;4.50;4.10;;;19.20;94.70;;;;;;4947887;28;20030;-36
2022/06/05 07:36:24;;;;;;;5.88;4.95;;;19.40;94.60;;;;;;4947923;29;20122;-35
2022/06/05 07:38:50;;;;;;;5.13;4.63;;;19.40;94.40;;;;;;4946964;29;20031;-35
2022/06/05 07:41:28;;;;;;;4.78;4.15;;;19.50;94.30;;;;;;4945698;29;20027;-36
2022/06/05 07:43:54;;;;;;;4.85;4.45;;;19.60;94.30;;;;;;4948255;28;20024;-37
2022/06/05 07:46:20;;;;;;;5.03;4.53;;;19.60;94.30;;;;;;4946767;28;20156;-37
2022/06/05 07:48:47;;;;;;;4.70;4.30;;;19.70;94.20;;;;;;4947522;29;20031;-36
2022/06/05 07:56:44;;;;;;;4.88;4.32;;;19.90;94.00;;;;;;4949572;29;20042;-37
2022/06/05 07:59:10;;;;;;;4.00;3.60;;;19.90;93.90;;;;;;4949928;28;20039;-35
2022/06/05 08:01:36;;;;;;;5.00;4.57;;;19.90;93.90;;;;;;4949276;29;20106;-36
2022/06/05 08:04:03;;;;;;;4.93;4.53;;;20.00;93.90;;;;;;4949889;28;20039;-36
2022/06/05 08:06:29;;;;;;;4.75;4.35;;;20.00;93.90;;;;;;4949045;28;20511;-36
2022/06/05 08:08:59;;;;;;;5.03;4.22;;;20.10;93.80;;;;;;4949722;29;20051;-36
2022/06/05 08:11:24;;;;;;;4.95;4.03;;;20.20;93.80;;;;;;4949457;28;20035;-38
2022/06/05 08:13:50;;;;;;;4.57;4.18;;;20.20;93.70;;;;;;4949267;29;20440;-37
2022/06/05 08:16:15;;;;;;;5.30;3.97;;;20.40;93.60;;;;;;4949775;29;20027;-37
2022/06/05 08:18:41;;;;;;;4.30;3.95;;;20.50;93.50;;;;;;4949698;28;20078;-37
2022/06/05 08:21:06;;;;;;;4.80;3.65;;;20.60;93.50;;;;;;4949258;28;20386;-38
2022/06/05 08:23:32;;;;;;;4.22;3.90;;;20.70;93.40;;;;;;4949095;29;20632;-37
2022/06/05 08:25:58;;;;;;;4.13;3.83;;;20.80;93.30;;;;;;4949989;29;20035;-36
2022/06/05 08:28:25;;;;;;;3.85;3.55;;;20.90;93.20;;;;;;4948598;28;20078;-37
2022/06/05 08:30:52;;;;;;;3.72;3.33;;;21.00;93.20;;;;;;4949633;28;20101;-36
2022/06/05 08:33:17;;;;;;;4.22;3.83;;;21.10;93.20;;;;;;4949705;28;20107;-38
2022/06/05 08:35:46;;;;;;;4.57;3.80;;;21.20;93.10;;;;;;4948327;29;20660;-39
2022/06/05 08:44:10;;;;;;;;;;;21.50;92.90;;;;;;4950450;28;20594;-37
2022/06/05 08:46:41;;;;;;;3.63;3.30;;;21.60;92.80;;;;;;4948436;29;19930;-37
2022/06/05 08:49:31;;;;;;;3.50;3.20;;;21.60;92.70;;;;;;4949343;28;20019;-35
2022/06/05 08:52:19;;;;;;;3.67;3.37;;;21.70;92.80;;;;;;4895815;28;1043030;-36
2022/06/05 08:55:00;;;;;;;5.20;4.40;;;21.80;92.70;;;;;;4949951;28;20536;-36
2022/06/05 08:57:50;;;;;;;4.90;4.50;;;21.80;92.60;;;;;;4949408;28;20027;-36
2022/06/05 09:00:17;;;;;;;5.28;4.50;;;21.90;92.80;;;;;;4950284;28;20056;-36
2022/06/05 09:03:07;;;;;;;4.15;3.75;;;21.90;92.50;;;;;;4948951;28;20509;-37
2022/06/05 09:05:39;;;;;;;3.53;3.22;;;22.00;92.60;;;;;;4949214;28;20030;-35
2022/06/05 09:08:12;;;;;;;4.18;3.83;;;22.10;92.60;;;;;;4950632;28;20042;-37
2022/06/05 09:10:43;;;;;;;3.70;3.40;;;22.10;92.50;;;;;;4949351;28;20035;-36
2022/06/05 09:13:24;;;;;;;3.95;3.60;;;22.20;92.50;;;;;;4950794;28;20038;-36
2022/06/05 09:15:56;;;;;;;3.92;3.60;;;22.20;92.40;;;;;;4950178;28;20030;-36
2022/06/05 09:18:24;;;;;;;5.00;3.70;;;22.30;92.30;;;;;;4949498;28;20066;-37
2022/06/05 09:20:56;;;;;;;4.13;3.83;;;22.40;92.30;;;;;;4949874;28;20034;-37
2022/06/05 09:24:01;;;;;;;3.83;3.47;;;22.40;92.30;;;;;;4949771;28;20024;-36
2022/06/05 09:26:43;;;;;;;4.72;4.28;;;22.50;92.30;;;;;;4949251;28;20141;-36
2022/06/05 09:29:42;;;;;;;4.35;3.97;;;22.60;92.20;;;;;;4949892;29;20479;-36
2022/06/05 09:32:16;;;;;;;4.22;3.70;;;22.70;92.20;;;;;;4949329;28;20034;-36
2022/06/05 09:34:52;;;;;;;4.22;3.92;;;22.80;92.20;;;;;;4930533;29;20491;-37
2022/06/05 09:37:30;;;;;;;4.07;3.75;;;22.90;92.10;;;;;;4945320;29;20042;-35
2022/06/05 09:40:18;;;;;;;4.05;3.70;;;23.00;92.10;;;;;;4931087;29;20118;-35
2022/06/05 09:43:14;;;;;;;3.90;3.55;;;23.00;92.00;;;;;;4947213;29;20459;-37
2022/06/05 09:46:08;;;;;;;3.13;2.92;;;23.10;92.00;;;;;;4948521;28;20166;-43
2022/06/05 09:48:45;;;;;;;4.28;3.88;;;23.20;91.90;;;;;;4946811;29;20487;-37
2022/06/05 09:51:15;;;;;;;4.32;3.92;;;23.20;91.80;;;;;;4949827;28;20043;-37
2022/06/05 09:54:19;;;;;;;3.78;3.47;;;23.30;91.90;;;;;;4948635;29;20049;-35
2022/06/05 10:00:07;;;;;;;3.83;3.53;;;23.40;91.80;;;;;;4948586;29;20612;-36
2022/06/05 10:02:34;;;;;;;4.05;3.30;;;23.40;91.80;;;;;;4948849;28;20020;-37
2022/06/05 10:05:00;;;;;;;3.50;3.20;;;23.50;91.80;;;;;;4949156;29;20135;-36
2022/06/05 10:07:34;;;;;;;3.03;2.83;;;23.50;91.80;;;;;;4948330;28;20030;-36
2022/06/05 10:10:15;;;;;;;3.60;3.30;;;23.50;91.90;;;;;;4950073;28;20035;-36
2022/06/05 10:12:51;;;;;;;3.73;3.43;;;23.50;91.90;;;;;;4948605;28;20027;-38
2022/06/05 10:15:24;;;;;;;3.33;3.13;;;23.50;91.90;;;;;;4948950;29;20324;-36
2022/06/05 10:18:10;;;;;;;3.65;3.35;;;23.50;92.00;;;;;;4948554;28;20031;-37
2022/06/05 10:20:56;;;;;;;5.20;3.28;;;23.40;92.00;;;;;;4948163;29;20039;-36
2022/06/05 10:23:25;;;;;;;3.55;3.25;;;23.40;92.10;;;;;;4948975;28;20019;-37
2022/06/05 10:25:54;;;;;;;3.20;2.97;;;23.40;92.10;;;;;;4948899;29;20039;-37
2022/06/05 10:28:30;;;;;;;3.90;3.47;;;23.40;92.10;;;;;;4947518;28;20031;-36
2022/06/05 10:31:00;;;;;;;3.50;3.10;;;23.30;92.10;;;;;;4949381;29;20074;-36
2022/06/05 10:33:39;;;;;;;3.13;2.83;;;23.30;92.10;;;;;;4948094;28;20023;-38
2022/06/05 10:36:14;;;;;;;3.70;3.40;;;23.30;92.20;;;;;;4947996;28;20041;-36
2022/06/05 10:39:06;;;;;;;3.75;3.08;;;23.30;92.30;;;;;;4948813;28;20035;-36
2022/06/05 10:41:52;;;;;;;3.47;3.28;;;23.30;92.50;;;;;;4947299;29;20031;-37
2022/06/05 10:44:36;;;;;;;3.30;3.00;;;23.30;92.30;;;;;;4947935;28;20027;-37
2022/06/05 10:47:11;;;;;;;3.55;3.25;;;23.30;92.30;;;;;;4948624;29;20039;-36
2022/06/05 10:49:50;;;;;;;3.60;3.33;;;23.30;92.30;;;;;;4947588;28;20434;-36
2022/06/05 10:52:34;;;;;;;3.47;3.17;;;23.30;92.40;;;;;;4929285;29;20063;-36
2022/06/05 10:55:44;;;;;;;3.58;3.28;;;23.20;92.40;;;;;;4947629;28;20122;-36
2022/06/05 10:58:22;;;;;;;3.92;3.63;;;23.30;92.40;;;;;;4948365;29;20067;-37
2022/06/05 11:01:01;;;;;;;3.75;3.33;;;23.30;92.30;;;;;;4948639;29;20027;-37
2022/06/05 11:03:33;;;;;;;3.60;3.30;;;23.20;92.30;;;;;;4947508;29;20487;-36
2022/06/05 11:06:30;;;;;;;3.78;3.33;;;23.20;92.30;;;;;;4948977;28;20075;-37
2022/06/05 11:09:46;;;;;;;4.07;3.50;;;23.20;92.30;;;;;;4948004;28;20082;-36
2022/06/05 11:15:27;;;;;;;4.13;3.65;;;23.20;92.30;;;;;;4948503;29;20073;-37
2022/06/05 11:18:16;;;;;;;4.80;4.35;;;23.20;92.30;;;;;;4947525;28;20027;-36
2022/06/05 11:20:49;;;;;;;4.00;3.70;;;23.20;92.10;;;;;;4947633;28;20487;-36
2022/06/05 11:23:22;;;;;;;3.90;3.60;;;23.20;92.10;;;;;;4947427;29;20070;-36
2022/06/05 11:26:04;;;;;;;;;;;23.20;92.20;;;;;;4948047;28;20027;-36
2022/06/05 11:28:52;;;;;;;3.92;3.60;;;23.20;92.20;;;;;;4947665;28;20353;-37
2022/06/05 11:31:26;;;;;;;4.28;3.92;;;23.20;92.20;;;;;;4946708;28;20042;-36
2022/06/05 11:34:14;;;;;;;3.95;3.65;;;23.20;92.20;;;;;;4948104;29;20507;-36
2022/06/05 11:37:10;;;;;;;3.95;3.60;;;23.20;92.20;;;;;;4947798;28;20574;-37
2022/06/05 11:39:49;;;;;;;3.75;3.45;;;23.10;92.20;;;;;;4947441;28;20043;-36
2022/06/05 11:42:31;;;;;;;4.10;3.70;;;23.10;92.10;;;;;;4944238;29;20110;-36
2022/06/05 11:45:03;;;;;;;4.30;3.90;;;23.10;92.20;;;;;;4947378;28;20043;-36
2022/06/05 11:47:59;;;;;;;4.03;3.60;;;23.00;92.20;;;;;;4947561;29;20038;-37
2022/06/05 11:50:47;;;;;;;3.83;3.53;;;23.00;92.10;;;;;;4946766;28;20035;-36
2022/06/05 11:53:32;;;;;;;3.88;3.58;;;23.00;92.10;;;;;;4937740;29;20050;-38
2022/06/05 11:56:36;;;;;;;3.45;3.15;;;23.00;92.10;;;;;;4947070;29;20509;-36
2022/06/05 11:59:23;;;;;;;3.70;3.40;;;23.00;92.10;;;;;;4945896;29;20130;-35
2022/06/05 12:02:08;;;;;;;3.80;3.50;;;23.00;92.10;;;;;;4947785;29;20123;-36
2022/06/05 12:04:49;;;;;;;3.85;3.55;;;22.90;92.20;;;;;;4947314;29;20031;-36
2022/06/05 12:07:17;;;;;;;5.05;3.63;;;22.80;92.20;;;;;;4946406;28;20094;-36
2022/06/05 12:09:49;;;;;;;4.30;3.97;;;22.80;92.40;;;;;;4948230;29;20028;-34
2022/06/05 12:12:41;;;;;;;3.95;3.65;;;22.80;92.50;;;;;;4946879;28;20032;-36
2022/06/05 12:15:28;;;;;;;3.93;3.63;;;22.70;92.60;;;;;;4926767;29;20474;-36
2022/06/05 12:18:06;;;;;;;3.70;3.42;;;22.70;92.80;;;;;;4945372;29;20035;-36
2022/06/05 12:20:45;;;;;;;4.20;3.90;;;22.70;92.90;;;;;;4946874;29;20094;-35
2022/06/05 12:23:41;;;;;;;4.82;3.90;;;22.70;93.20;;;;;;4947284;29;20038;-36
2022/06/05 12:26:34;;;;;;;4.32;4.03;;;22.70;93.50;;;;;;4948025;29;20485;-37
2022/06/05 12:29:23;;;;;;;4.70;4.30;;;22.70;93.80;;;;;;4947900;28;20046;-36
2022/06/05 12:32:14;;;;;;;5.00;4.50;;;22.70;93.90;;;;;;4947759;29;20025;-36
2022/06/05 12:34:48;;;;;;;4.70;4.40;;;22.70;94.30;;;;;;4918575;29;20538;-35
2022/06/05 12:37:25;;;;;;;5.13;4.72;;;22.70;94.50;;;;;;4946785;28;20363;-35
2022/06/05 12:39:54;;;;;;;5.38;4.22;;;22.70;94.70;;;;;;4947970;29;20046;-36
2022/06/05 12:42:36;;;;;;;5.05;4.65;;;22.70;95.00;;;;;;4947744;28;20167;-35
2022/06/05 12:45:06;;;;;;;6.13;5.53;;;22.70;95.40;;;;;;4950905;28;20042;-36
2022/06/05 12:47:37;;;;;;;5.10;4.68;;;22.70;95.60;;;;;;4949644;28;20094;-35
2022/06/05 12:50:24;;;;;;;5.82;5.07;;;22.60;95.80;;;;;;4951425;29;20035;-35
2022/06/05 12:53:13;;;;;;;4.32;3.92;;;22.60;96.20;;;;;;4950287;28;20062;-37
2022/06/05 12:55:48;;;;;;;6.38;5.78;;;22.50;96.30;;;;;;4949352;28;20027;-36
2022/06/05 12:58:19;;;;;;;6.35;5.85;;;22.40;96.60;;;;;;4950559;29;20027;-36
2022/06/05 13:00:56;;;;;;;6.75;6.15;;;22.30;96.80;;;;;;4950319;28;20027;-36
2022/06/05 13:03:42;;;;;;;7.13;6.50;;;22.30;97.10;;;;;;4949236;29;20030;-36
2022/06/05 13:06:19;;;;;;;6.55;5.95;;;22.30;97.20;;;;;;4950271;28;20038;-36
2022/06/05 13:08:54;;;;;;;6.57;6.07;;;22.30;97.50;;;;;;4949308;28;20031;-38
2022/06/05 13:11:44;;;;;;;7.10;6.32;;;22.20;97.70;;;;;;4950440;29;20035;-37
2022/06/05 13:14:31;;;;;;;7.43;6.72;;;22.20;98.00;;;;;;4950327;28;20615;-37
2022/06/05 13:16:56;;;;;;;7.00;6.40;;;22.20;98.20;;;;;;4949800;29;20034;-37
2022/06/05 13:19:28;;;;;;;7.57;6.85;;;22.20;98.30;;;;;;4949250;29;20039;-35
2022/06/05 13:22:28;;;;;;;7.35;6.65;;;22.20;98.50;;;;;;4950682;28;20035;-36
2022/06/05 13:25:18;;;;;;;7.20;6.60;;;22.30;98.60;;;;;;4950073;28;20032;-36
2022/06/05 13:28:17;;;;;;;7.85;7.15;;;22.30;98.70;;;;;;4931183;29;20546;-36
2022/06/05 13:30:52;;;;;;;7.40;6.70;;;22.40;98.80;;;;;;4948712;29;20029;-36
2022/06/05 13:33:39;;;;;;;7.43;6.78;;;22.30;98.80;;;;;;4950325;28;20031;-37
2022/06/05 13:36:23;;;;;;;7.50;6.90;;;22.30;99.00;;;;;;4947257;29;20043;-38
2022/06/05 13:38:52;;;;;;;7.00;6.50;;;22.30;99.20;;;;;;4949315;29;20041;-37
2022/06/05 13:41:32;;;;;;;7.68;7.07;;;22.30;99.30;;;;;;4950378;29;20039;-38
2022/06/05 13:44:16;;;;;;;10.73;8.05;;;22.30;99.50;;;;;;4949219;28;20094;-38
2022/06/05 13:47:03;;;;;;;8.02;7.32;;;22.30;99.70;;;;;;4949504;29;20082;-37
2022/06/05 13:50:01;;;;;;;7.32;6.22;;;22.30;99.80;;;;;;4949258;29;20530;-37